Time;durP1;ratioP1;P1;durP2;ratioP2;P2;SDS_P1;SDS_P2;PMS_P1;PMS_P2;Temp;Humidity;BMP_temperature;BMP_pressure;BME280_temperature;BME280_humidity;BME280_pressure;Samples;Min_cycle;Max_cycle;Signal;HPM_P1;HPM_P2
2023/08/03 00:02:23;;;;;;;7.38;2.03;;;;;;;;;;5017724;28;20430;-83
2023/08/03 00:04:49;;;;;;;4.13;1.92;;;;;;;;;;5006252;28;20482;-83
2023/08/03 00:07:15;;;;;;;6.63;1.75;;;;;;;;;;5056832;28;20428;-83
2023/08/03 00:09:43;;;;;;;7.00;2.05;;;;;;;;;;5055478;28;20378;-82
2023/08/03 00:12:10;;;;;;;6.13;2.00;;;;;;;;;;5056168;28;20837;-83
2023/08/03 00:14:36;;;;;;;6.50;2.08;;;;;;;;;;5055571;28;20413;-84
2023/08/03 00:17:02;;;;;;;6.65;2.05;;;;;;;;;;5047429;28;20391;-83
2023/08/03 00:19:28;;;;;;;6.27;1.80;;;;;;;;;;5037006;28;20853;-82
2023/08/03 00:21:54;;;;;;;6.97;1.98;;;;;;;;;;5034496;28;20394;-82
2023/08/03 00:24:20;;;;;;;5.95;1.80;;;;;;;;;;5036471;28;20734;-82
2023/08/03 00:26:47;;;;;;;5.82;1.83;;;;;;;;;;5035345;28;20427;-82
2023/08/03 00:29:13;;;;;;;7.18;2.13;;;;;;;;;;5035468;28;20400;-82
2023/08/03 00:31:39;;;;;;;6.00;1.98;;;;;;;;;;5035282;28;20383;-82
2023/08/03 00:34:05;;;;;;;7.83;2.03;;;;;;;;;;5034491;28;20472;-82
2023/08/03 00:36:32;;;;;;;9.30;2.20;;;;;;;;;;5034617;28;20826;-82
2023/08/03 00:38:59;;;;;;;6.18;2.08;;;;;;;;;;5035967;28;20384;-82
2023/08/03 00:41:25;;;;;;;7.15;1.88;;;;;;;;;;5035937;28;20445;-82
2023/08/03 00:43:51;;;;;;;5.93;1.92;;;;;;;;;;5035925;28;20403;-84
2023/08/03 00:46:17;;;;;;;8.48;2.38;;;;;;;;;;5036516;28;20869;-83
2023/08/03 00:48:43;;;;;;;4.70;1.80;;;;;;;;;;5035609;28;20391;-83
2023/08/03 00:51:09;;;;;;;7.10;2.25;;;;;;;;;;5034783;28;20395;-83
2023/08/03 00:53:35;;;;;;;7.17;1.80;;;;;;;;;;5035328;28;20499;-85
2023/08/03 00:56:01;;;;;;;5.95;1.98;;;;;;;;;;5036096;28;20948;-83
2023/08/03 00:58:27;;;;;;;4.63;1.90;;;;;;;;;;5035961;28;20419;-84
2023/08/03 01:00:53;;;;;;;7.30;2.03;;;;;;;;;;5035154;28;20426;-84
2023/08/03 01:03:19;;;;;;;6.65;1.90;;;;;;;;;;5035169;28;20828;-82
2023/08/03 01:05:45;;;;;;;8.50;2.20;;;;;;;;;;5044077;28;20380;-82
2023/08/03 01:08:11;;;;;;;6.05;1.88;;;;;;;;;;5035840;28;20417;-82
2023/08/03 01:10:37;;;;;;;5.85;1.90;;;;;;;;;;5036545;28;20391;-82
2023/08/03 01:13:03;;;;;;;7.45;1.90;;;;;;;;;;5035335;28;20391;-82
2023/08/03 01:15:29;;;;;;;4.85;2.10;;;;;;;;;;5035270;28;20768;-83
2023/08/03 01:17:55;;;;;;;7.88;2.05;;;;;;;;;;5035214;28;20395;-82
2023/08/03 01:20:22;;;;;;;5.47;1.80;;;;;;;;;;5035413;28;20769;-82
2023/08/03 01:22:48;;;;;;;5.60;1.73;;;;;;;;;;5034834;28;20411;-82
2023/08/03 01:25:14;;;;;;;5.40;1.90;;;;;;;;;;5035141;28;20399;-82
2023/08/03 01:27:44;;;;;;;6.03;2.03;;;;;;;;;;5034175;28;20379;-82
2023/08/03 01:30:12;;;;;;;9.68;2.15;;;;;;;;;;5034099;28;20422;-82
2023/08/03 01:32:38;;;;;;;5.97;2.05;;;;;;;;;;5035630;28;20878;-82
2023/08/03 01:35:06;;;;;;;5.80;1.70;;;;;;;;;;5033935;28;20430;-82
2023/08/03 01:37:34;;;;;;;6.10;1.55;;;;;;;;;;5034543;28;20391;-82
2023/08/03 01:40:00;;;;;;;6.63;1.70;;;;;;;;;;5033888;28;20395;-82
2023/08/03 01:42:26;;;;;;;6.55;1.67;;;;;;;;;;5034463;28;20379;-82
2023/08/03 01:44:52;;;;;;;5.97;1.65;;;;;;;;;;5034237;28;20736;-82
2023/08/03 01:47:19;;;;;;;5.65;1.70;;;;;;;;;;5033639;28;20488;-82
2023/08/03 01:49:46;;;;;;;6.07;1.80;;;;;;;;;;5035399;28;20891;-82
2023/08/03 01:52:12;;;;;;;6.68;1.73;;;;;;;;;;5033829;28;20387;-82
2023/08/03 01:54:38;;;;;;;4.40;1.55;;;;;;;;;;5033684;28;20423;-82
2023/08/03 01:57:04;;;;;;;7.25;1.60;;;;;;;;;;5033726;28;20478;-82
2023/08/03 01:59:30;;;;;;;5.55;1.50;;;;;;;;;;5050387;28;20386;-82
2023/08/03 02:01:56;;;;;;;4.07;1.40;;;;;;;;;;5053768;28;20374;-82
2023/08/03 02:04:22;;;;;;;4.38;1.80;;;;;;;;;;5053920;28;20885;-83
2023/08/03 02:06:51;;;;;;;3.53;1.27;;;;;;;;;;5053361;28;20389;-82
2023/08/03 02:09:18;;;;;;;4.97;1.47;;;;;;;;;;5052348;28;20862;-81
2023/08/03 02:11:44;;;;;;;4.72;1.13;;;;;;;;;;5034544;28;20448;-84
2023/08/03 02:14:10;;;;;;;5.30;1.48;;;;;;;;;;5033828;28;20458;-82
2023/08/03 02:16:36;;;;;;;4.57;1.20;;;;;;;;;;5033419;28;20402;-82
2023/08/03 02:19:02;;;;;;;5.00;1.10;;;;;;;;;;5033242;28;20395;-81
2023/08/03 02:21:28;;;;;;;3.28;1.10;;;;;;;;;;5035156;28;20391;-82
2023/08/03 02:23:54;;;;;;;4.50;1.27;;;;;;;;;;5033614;28;20881;-81
2023/08/03 02:26:21;;;;;;;4.00;1.20;;;;;;;;;;5016802;28;21761;-82
2023/08/03 02:28:47;;;;;;;3.10;1.23;;;;;;;;;;5033319;28;20810;-82
2023/08/03 02:31:13;;;;;;;4.50;1.30;;;;;;;;;;5033045;28;20438;-82
2023/08/03 02:33:39;;;;;;;5.18;1.40;;;;;;;;;;5033079;28;20426;-82
2023/08/03 02:36:05;;;;;;;2.95;1.08;;;;;;;;;;5033715;28;20475;-82
2023/08/03 02:38:31;;;;;;;5.18;1.27;;;;;;;;;;5033398;28;20391;-82
2023/08/03 02:40:57;;;;;;;4.32;1.23;;;;;;;;;;5031697;28;20383;-84
2023/08/03 02:43:26;;;;;;;3.85;1.20;;;;;;;;;;5033319;28;20895;-82
2023/08/03 02:45:52;;;;;;;5.38;1.25;;;;;;;;;;5033237;28;20403;-82
2023/08/03 02:48:18;;;;;;;4.88;1.23;;;;;;;;;;5033106;28;20448;-82
2023/08/03 02:50:44;;;;;;;5.32;1.30;;;;;;;;;;5032826;28;20879;-83
2023/08/03 02:53:10;;;;;;;3.60;1.17;;;;;;;;;;5033255;28;20391;-82
2023/08/03 02:55:36;;;;;;;4.65;1.23;;;;;;;;;;5032375;28;20426;-82
2023/08/03 02:58:02;;;;;;;4.20;1.40;;;;;;;;;;5034412;28;20418;-82
2023/08/03 03:00:28;;;;;;;6.13;1.33;;;;;;;;;;5031831;28;20389;-82
2023/08/03 03:02:54;;;;;;;5.70;1.30;;;;;;;;;;5034005;28;20383;-82
2023/08/03 03:05:20;;;;;;;5.00;1.13;;;;;;;;;;5032554;28;20387;-82
2023/08/03 03:07:46;;;;;;;6.18;1.35;;;;;;;;;;5033523;28;20831;-82
2023/08/03 03:10:13;;;;;;;4.63;1.30;;;;;;;;;;5033549;28;20441;-83
2023/08/03 03:12:39;;;;;;;4.50;1.45;;;;;;;;;;5034830;28;20454;-82
2023/08/03 03:15:05;;;;;;;5.20;1.50;;;;;;;;;;5033233;28;20407;-82
2023/08/03 03:17:31;;;;;;;5.38;1.48;;;;;;;;;;5032153;28;20387;-82
2023/08/03 03:19:57;;;;;;;4.05;1.25;;;;;;;;;;5032523;28;20474;-82
2023/08/03 03:22:23;;;;;;;4.40;1.23;;;;;;;;;;5032103;28;20388;-82
2023/08/03 03:24:49;;;;;;;5.57;1.40;;;;;;;;;;5032769;28;20395;-82
2023/08/03 03:27:15;;;;;;;3.87;1.23;;;;;;;;;;5032490;28;20879;-82
2023/08/03 03:29:41;;;;;;;4.45;1.27;;;;;;;;;;5033600;28;20387;-82
2023/08/03 03:32:07;;;;;;;4.00;1.20;;;;;;;;;;5032681;28;21127;-82
2023/08/03 03:34:33;;;;;;;4.70;1.10;;;;;;;;;;5031984;28;20387;-82
2023/08/03 03:36:59;;;;;;;3.20;1.30;;;;;;;;;;5033214;28;20418;-82
2023/08/03 03:39:25;;;;;;;2.87;0.90;;;;;;;;;;5032553;28;20459;-83
2023/08/03 03:41:51;;;;;;;3.90;1.30;;;;;;;;;;5032435;28;20391;-82
2023/08/03 03:44:17;;;;;;;5.43;1.15;;;;;;;;;;5032544;28;20403;-82
2023/08/03 03:46:43;;;;;;;2.92;1.08;;;;;;;;;;5032620;28;20399;-82
2023/08/03 03:49:09;;;;;;;4.30;1.23;;;;;;;;;;5032470;28;20398;-82
2023/08/03 03:51:35;;;;;;;4.63;1.23;;;;;;;;;;5032229;28;20864;-82
2023/08/03 03:54:01;;;;;;;3.27;1.10;;;;;;;;;;5032211;28;20395;-82
2023/08/03 03:56:27;;;;;;;3.35;1.10;;;;;;;;;;5032142;28;20474;-82
2023/08/03 03:58:53;;;;;;;3.08;0.95;;;;;;;;;;5032364;28;20414;-82
2023/08/03 04:01:19;;;;;;;3.08;1.05;;;;;;;;;;5032750;28;20402;-82
2023/08/03 04:03:45;;;;;;;2.45;1.00;;;;;;;;;;5031906;28;20423;-82
2023/08/03 04:06:11;;;;;;;3.80;1.00;;;;;;;;;;5040230;28;20434;-82
2023/08/03 04:08:37;;;;;;;4.68;1.10;;;;;;;;;;5031881;28;20398;-82
2023/08/03 04:11:06;;;;;;;4.15;1.20;;;;;;;;;;5044790;23;20418;-81
2023/08/03 04:13:35;;;;;;;3.08;1.00;;;;;;;;;;5074467;28;20427;-82
2023/08/03 04:16:01;;;;;;;3.92;1.08;;;;;;;;;;5076171;28;20384;-82
2023/08/03 04:18:27;;;;;;;4.27;1.27;;;;;;;;;;5076584;28;20761;-83
2023/08/03 04:20:54;;;;;;;3.25;1.08;;;;;;;;;;5071693;28;20396;-83
2023/08/03 04:23:20;;;;;;;3.40;1.10;;;;;;;;;;5056069;28;20398;-83
2023/08/03 04:25:51;;;;;;;5.03;1.08;;;;;;;;;;5056677;28;20435;-83
2023/08/03 04:28:17;;;;;;;3.40;1.10;;;;;;;;;;5056580;28;20382;-83
2023/08/03 04:30:43;;;;;;;3.28;1.05;;;;;;;;;;5056635;28;20385;-82
2023/08/03 04:33:09;;;;;;;3.85;1.17;;;;;;;;;;5057317;28;20725;-83
2023/08/03 04:35:38;;;;;;;2.65;0.90;;;;;;;;;;5056415;28;20490;-82
2023/08/03 04:38:04;;;;;;;3.25;0.90;;;;;;;;;;5056752;28;20392;-82
2023/08/03 04:40:35;;;;;;;2.95;0.90;;;;;;;;;;5071556;28;20870;-83
2023/08/03 04:43:01;;;;;;;2.70;1.05;;;;;;;;;;5056586;28;20750;-82
2023/08/03 04:45:27;;;;;;;3.80;1.00;;;;;;;;;;5056418;28;20941;-83
2023/08/03 04:47:53;;;;;;;2.92;0.82;;;;;;;;;;5071727;28;20429;-82
2023/08/03 04:50:21;;;;;;;3.17;0.90;;;;;;;;;;5054201;28;20887;-83
2023/08/03 04:52:50;;;;;;;2.50;0.82;;;;;;;;;;5055977;28;20439;-82
2023/08/03 04:55:19;;;;;;;1.75;0.70;;;;;;;;;;5056695;28;20428;-83
2023/08/03 04:57:45;;;;;;;3.38;1.00;;;;;;;;;;5055627;28;20467;-83
2023/08/03 05:00:11;;;;;;;2.93;0.93;;;;;;;;;;5055803;28;20405;-82
2023/08/03 05:02:39;;;;;;;3.20;0.80;;;;;;;;;;5055419;28;20388;-82
2023/08/03 05:05:06;;;;;;;4.53;1.05;;;;;;;;;;5055837;28;20431;-82
2023/08/03 05:07:32;;;;;;;3.22;0.90;;;;;;;;;;5055593;28;20763;-83
2023/08/03 05:09:58;;;;;;;3.25;1.10;;;;;;;;;;5054852;28;20885;-83
2023/08/03 05:12:24;;;;;;;2.77;1.00;;;;;;;;;;5055241;28;20793;-82
2023/08/03 05:14:55;;;;;;;2.80;0.80;;;;;;;;;;5055167;28;20464;-82
2023/08/03 05:17:21;;;;;;;4.83;0.90;;;;;;;;;;5054998;28;20727;-82
2023/08/03 05:19:47;;;;;;;2.83;0.80;;;;;;;;;;5055281;28;20384;-83
2023/08/03 05:22:13;;;;;;;4.00;1.00;;;;;;;;;;5054479;28;20381;-83
2023/08/03 05:24:39;;;;;;;2.85;0.93;;;;;;;;;;5055503;28;20413;-83
2023/08/03 05:27:05;;;;;;;3.33;0.85;;;;;;;;;;5055063;28;20401;-83
2023/08/03 05:29:31;;;;;;;2.38;0.60;;;;;;;;;;5055588;28;20386;-83
2023/08/03 05:31:57;;;;;;;2.28;0.68;;;;;;;;;;5056345;28;20406;-83
2023/08/03 05:34:24;;;;;;;2.45;0.70;;;;;;;;;;5055726;28;20396;-83
2023/08/03 05:36:53;;;;;;;3.13;0.85;;;;;;;;;;5056315;28;20381;-83
2023/08/03 05:39:19;;;;;;;2.80;0.90;;;;;;;;;;5055089;28;20460;-83
2023/08/03 05:41:45;;;;;;;3.78;0.90;;;;;;;;;;5055268;28;20735;-83
2023/08/03 05:44:11;;;;;;;3.17;0.90;;;;;;;;;;5054264;28;20471;-83
2023/08/03 05:46:37;;;;;;;2.13;0.73;;;;;;;;;;5055073;28;20391;-83
2023/08/03 05:49:04;;;;;;;3.47;0.90;;;;;;;;;;5055348;28;20382;-83
2023/08/03 05:51:30;;;;;;;4.03;0.85;;;;;;;;;;5055471;28;20386;-83
2023/08/03 05:53:56;;;;;;;2.45;0.80;;;;;;;;;;5055211;28;20426;-83
2023/08/03 05:56:22;;;;;;;3.22;0.93;;;;;;;;;;5053851;28;20722;-83
2023/08/03 05:58:55;;;;;;;2.40;0.70;;;;;;;;;;5055505;28;20388;-83
2023/08/03 06:01:22;;;;;;;3.08;0.93;;;;;;;;;;5055494;28;20434;-83
2023/08/03 06:03:48;;;;;;;2.80;0.80;;;;;;;;;;5054613;28;20401;-83
2023/08/03 06:06:16;;;;;;;2.63;0.80;;;;;;;;;;5054800;28;20444;-83
2023/08/03 06:08:45;;;;;;;2.50;0.73;;;;;;;;;;5054980;28;20386;-83
2023/08/03 06:11:11;;;;;;;2.00;0.82;;;;;;;;;;5055059;28;20377;-83
2023/08/03 06:13:39;;;;;;;2.92;0.80;;;;;;;;;;5054480;28;20377;-83
2023/08/03 06:16:09;;;;;;;2.17;0.80;;;;;;;;;;5055033;28;20397;-83
2023/08/03 06:18:46;;;;;;;2.53;0.65;;;;;;;;;;5053481;28;20409;-84
2023/08/03 06:21:13;;;;;;;2.42;0.77;;;;;;;;;;5055637;28;20471;-83
2023/08/03 06:23:40;;;;;;;2.40;0.60;;;;;;;;;;5055372;28;20384;-83
2023/08/03 06:26:11;;;;;;;2.20;0.73;;;;;;;;;;5055093;28;20401;-83
2023/08/03 06:28:37;;;;;;;2.50;1.00;;;;;;;;;;5055017;28;20386;-83
2023/08/03 06:31:09;;;;;;;2.73;0.80;;;;;;;;;;5054893;28;20905;-83
2023/08/03 06:33:35;;;;;;;2.90;0.80;;;;;;;;;;5055013;28;20378;-83
2023/08/03 06:36:02;;;;;;;2.22;0.50;;;;;;;;;;5055382;28;20384;-83
2023/08/03 06:38:28;;;;;;;3.00;0.70;;;;;;;;;;5054977;28;20502;-83
2023/08/03 06:40:53;;;;;;;1.97;0.80;;;;;;;;;;5054834;28;20488;-83
2023/08/03 06:43:19;;;;;;;3.33;0.73;;;;;;;;;;5054717;28;20382;-83
2023/08/03 06:45:46;;;;;;;2.17;0.50;;;;;;;;;;5055349;28;20413;-83
2023/08/03 06:48:12;;;;;;;3.80;0.77;;;;;;;;;;5055407;28;20388;-83
2023/08/03 06:50:38;;;;;;;2.37;0.57;;;;;;;;;;5054398;28;20373;-83
2023/08/03 06:53:04;;;;;;;1.75;0.50;;;;;;;;;;5054993;28;20756;-83
2023/08/03 06:55:31;;;;;;;2.50;0.57;;;;;;;;;;5054604;28;20381;-83
2023/08/03 06:57:57;;;;;;;2.85;0.80;;;;;;;;;;5054189;28;20385;-83
2023/08/03 07:00:23;;;;;;;2.40;0.60;;;;;;;;;;5052656;28;20378;-83
2023/08/03 07:02:50;;;;;;;1.88;0.57;;;;;;;;;;5053935;28;20866;-83
2023/08/03 07:05:16;;;;;;;2.28;0.50;;;;;;;;;;5053154;28;20978;-83
2023/08/03 07:07:42;;;;;;;1.43;0.43;;;;;;;;;;5054914;28;20388;-84
2023/08/03 07:10:08;;;;;;;0.95;0.38;;;;;;;;;;5054598;28;20382;-83
2023/08/03 07:12:35;;;;;;;3.58;0.50;;;;;;;;;;5055389;28;20446;-83
2023/08/03 07:15:01;;;;;;;2.17;0.65;;;;;;;;;;5055913;28;20481;-83
2023/08/03 07:17:27;;;;;;;1.13;0.35;;;;;;;;;;5055324;28;20447;-84
2023/08/03 07:19:54;;;;;;;1.55;0.50;;;;;;;;;;5054285;28;20388;-84
2023/08/03 07:22:20;;;;;;;1.42;0.40;;;;;;;;;;5056037;28;20389;-83
2023/08/03 07:24:46;;;;;;;1.00;0.40;;;;;;;;;;5056219;28;20415;-83
2023/08/03 07:27:12;;;;;;;1.30;0.50;;;;;;;;;;5056056;28;20398;-84
2023/08/03 07:29:38;;;;;;;1.08;0.50;;;;;;;;;;5056036;28;20380;-84
2023/08/03 07:32:04;;;;;;;2.03;0.45;;;;;;;;;;5055756;28;20392;-84
2023/08/03 07:34:30;;;;;;;1.50;0.50;;;;;;;;;;5056216;28;20386;-84
2023/08/03 07:36:57;;;;;;;1.42;0.45;;;;;;;;;;5054139;28;20468;-84
2023/08/03 07:39:23;;;;;;;1.80;0.63;;;;;;;;;;5054718;28;20434;-84
2023/08/03 07:41:49;;;;;;;0.80;0.47;;;;;;;;;;5056327;28;20388;-84
2023/08/03 07:44:16;;;;;;;1.70;0.60;;;;;;;;;;5055991;28;20429;-84
2023/08/03 07:46:42;;;;;;;1.20;0.32;;;;;;;;;;5059166;28;20393;-84
2023/08/03 07:49:08;;;;;;;1.38;0.50;;;;;;;;;;5059718;28;20850;-84
2023/08/03 07:51:35;;;;;;;1.60;0.60;;;;;;;;;;5059031;28;20385;-83
2023/08/03 07:54:01;;;;;;;1.60;0.50;;;;;;;;;;5059884;28;20515;-84
2023/08/03 07:56:26;;;;;;;4.20;0.60;;;;;;;;;;5058868;28;20385;-84
2023/08/03 07:58:53;;;;;;;2.00;0.60;;;;;;;;;;5057935;28;20381;-83
2023/08/03 08:01:19;;;;;;;1.33;0.40;;;;;;;;;;5058716;28;20389;-84
2023/08/03 08:03:45;;;;;;;2.30;0.45;;;;;;;;;;5058337;28;20384;-84
2023/08/03 08:06:13;;;;;;;1.50;0.50;;;;;;;;;;5058020;28;20476;-84
2023/08/03 08:08:39;;;;;;;0.80;0.40;;;;;;;;;;5058694;28;20386;-83
2023/08/03 08:11:05;;;;;;;1.15;0.32;;;;;;;;;;5058305;28;20421;-84
2023/08/03 08:13:32;;;;;;;1.35;0.50;;;;;;;;;;5058288;28;20382;-84
2023/08/03 08:16:01;;;;;;;1.00;0.50;;;;;;;;;;5058160;28;20408;-83
2023/08/03 08:18:28;;;;;;;1.67;0.50;;;;;;;;;;5058567;28;20389;-84
2023/08/03 08:20:57;;;;;;;1.38;0.50;;;;;;;;;;5057818;28;20885;-84
2023/08/03 08:23:23;;;;;;;2.63;0.60;;;;;;;;;;5059449;28;20428;-83
2023/08/03 08:25:49;;;;;;;1.63;0.45;;;;;;;;;;5059110;28;20754;-84
2023/08/03 08:28:15;;;;;;;1.40;0.43;;;;;;;;;;5059121;28;20438;-83
2023/08/03 08:30:41;;;;;;;1.08;0.47;;;;;;;;;;5057789;28;20737;-83
2023/08/03 08:33:07;;;;;;;2.78;0.60;;;;;;;;;;5057527;28;20461;-83
2023/08/03 08:35:33;;;;;;;1.63;0.40;;;;;;;;;;5057092;28;20425;-84
2023/08/03 08:38:00;;;;;;;3.05;0.50;;;;;;;;;;5059432;28;20853;-84
2023/08/03 08:40:28;;;;;;;1.63;0.60;;;;;;;;;;5058960;28;20469;-83
2023/08/03 08:42:55;;;;;;;1.30;0.40;;;;;;;;;;5058715;28;20419;-84
2023/08/03 08:45:22;;;;;;;2.05;0.43;;;;;;;;;;5058413;28;20420;-83
2023/08/03 08:47:48;;;;;;;1.88;0.60;;;;;;;;;;5057576;28;20398;-84
2023/08/03 08:50:14;;;;;;;1.77;0.60;;;;;;;;;;5058273;28;20858;-84
2023/08/03 08:52:42;;;;;;;2.77;0.70;;;;;;;;;;5057592;28;20885;-84
2023/08/03 08:55:12;;;;;;;2.25;0.70;;;;;;;;;;5058416;28;20437;-84
2023/08/03 08:57:39;;;;;;;1.52;0.60;;;;;;;;;;5056692;28;20386;-83
2023/08/03 09:00:06;;;;;;;2.55;0.60;;;;;;;;;;5058496;28;20743;-84
2023/08/03 09:02:32;;;;;;;1.02;0.45;;;;;;;;;;5057673;28;20381;-84
2023/08/03 09:05:08;;;;;;;2.78;0.55;;;;;;;;;;5057569;28;20412;-84
2023/08/03 09:07:34;;;;;;;2.17;0.60;;;;;;;;;;5058137;28;20825;-83
2023/08/03 09:10:03;;;;;;;3.53;0.70;;;;;;;;;;5058411;28;20464;-83
2023/08/03 09:12:30;;;;;;;2.20;0.50;;;;;;;;;;5058241;28;20409;-84
2023/08/03 09:14:57;;;;;;;2.13;0.52;;;;;;;;;;5058583;28;20378;-83
2023/08/03 09:17:23;;;;;;;2.78;0.47;;;;;;;;;;5057634;28;20919;-83
2023/08/03 09:19:49;;;;;;;2.10;0.60;;;;;;;;;;5057887;28;20424;-83
2023/08/03 09:22:19;;;;;;;3.58;0.70;;;;;;;;;;5057203;28;20390;-83
2023/08/03 09:24:47;;;;;;;1.17;0.50;;;;;;;;;;5057516;28;20408;-83
2023/08/03 09:27:16;;;;;;;2.33;0.57;;;;;;;;;;5056520;28;20385;-83
2023/08/03 09:29:42;;;;;;;1.38;0.50;;;;;;;;;;5056440;28;20438;-83
2023/08/03 09:32:08;;;;;;;2.08;0.52;;;;;;;;;;5056865;28;20472;-83
2023/08/03 09:34:44;;;;;;;1.20;0.60;;;;;;;;;;5057477;28;20443;-83
2023/08/03 09:37:11;;;;;;;3.13;0.57;;;;;;;;;;5057085;28;20881;-83
2023/08/03 09:39:38;;;;;;;2.03;0.73;;;;;;;;;;5057661;28;20382;-83
2023/08/03 09:42:11;;;;;;;2.00;0.60;;;;;;;;;;5057348;28;20400;-83
2023/08/03 09:44:38;;;;;;;3.03;0.50;;;;;;;;;;5057377;28;20409;-83
2023/08/03 09:47:05;;;;;;;1.90;0.50;;;;;;;;;;5057467;28;20393;-84
2023/08/03 09:49:31;;;;;;;1.33;0.40;;;;;;;;;;5057861;28;20413;-84
2023/08/03 09:51:58;;;;;;;2.03;0.30;;;;;;;;;;5058013;28;20382;-84
2023/08/03 09:54:25;;;;;;;2.00;0.40;;;;;;;;;;5057436;28;20707;-84
2023/08/03 09:56:54;;;;;;;1.47;0.40;;;;;;;;;;5057369;28;20921;-85
2023/08/03 09:59:27;;;;;;;1.73;0.60;;;;;;;;;;5058967;28;20384;-84
2023/08/03 10:01:57;;;;;;;1.00;0.50;;;;;;;;;;5059137;28;20405;-84
2023/08/03 10:04:24;;;;;;;1.33;0.40;;;;;;;;;;5058379;28;20862;-84
2023/08/03 10:06:51;;;;;;;2.33;0.40;;;;;;;;;;5057284;28;20497;-83
2023/08/03 10:09:21;;;;;;;1.20;0.50;;;;;;;;;;5056872;28;20382;-84
2023/08/03 10:11:48;;;;;;;1.50;0.37;;;;;;;;;;5056395;28;20484;-84
2023/08/03 10:14:17;;;;;;;2.38;0.50;;;;;;;;;;5058057;28;20389;-84
2023/08/03 10:16:44;;;;;;;1.10;0.40;;;;;;;;;;5056471;28;20382;-84
2023/08/03 10:19:11;;;;;;;1.38;0.30;;;;;;;;;;5056656;28;20396;-83
2023/08/03 10:21:38;;;;;;;0.90;0.40;;;;;;;;;;5058813;28;20394;-84
2023/08/03 10:24:09;;;;;;;1.38;0.40;;;;;;;;;;5056692;28;20396;-84
2023/08/03 10:26:36;;;;;;;2.08;0.40;;;;;;;;;;5060337;28;20484;-84
2023/08/03 10:29:03;;;;;;;3.47;0.50;;;;;;;;;;5057954;28;20774;-84
2023/08/03 10:31:29;;;;;;;1.20;0.35;;;;;;;;;;5056983;28;20392;-84
2023/08/03 10:33:55;;;;;;;2.80;0.40;;;;;;;;;;5056950;28;20429;-83
2023/08/03 10:36:30;;;;;;;1.17;0.40;;;;;;;;;;5056907;28;20412;-85
2023/08/03 10:38:57;;;;;;;3.97;0.50;;;;;;;;;;5056353;28;20457;-85
2023/08/03 10:41:24;;;;;;;1.40;0.43;;;;;;;;;;5056463;28;20389;-84
2023/08/03 10:44:05;;;;;;;1.25;0.40;;;;;;;;;;5056894;28;20378;-84
2023/08/03 10:46:32;;;;;;;1.27;0.40;;;;;;;;;;5058579;28;20389;-85
2023/08/03 10:48:57;;;;;;;1.33;0.50;;;;;;;;;;5056933;28;20456;-84
2023/08/03 10:51:24;;;;;;;1.52;0.52;;;;;;;;;;5056708;28;20945;-84
2023/08/03 10:53:50;;;;;;;2.00;0.40;;;;;;;;;;5057287;28;20475;-85
2023/08/03 10:56:16;;;;;;;1.67;0.40;;;;;;;;;;5058513;28;20373;-85
2023/08/03 10:58:47;;;;;;;1.45;0.30;;;;;;;;;;5055976;28;20871;-85
2023/08/03 11:01:14;;;;;;;0.90;0.40;;;;;;;;;;5056521;28;20501;-85
2023/08/03 11:03:40;;;;;;;0.85;0.40;;;;;;;;;;5056675;28;20386;-86
2023/08/03 11:06:06;;;;;;;0.70;0.30;;;;;;;;;;5057363;28;20792;-86
2023/08/03 11:08:36;;;;;;;0.95;0.30;;;;;;;;;;5057639;28;20394;-85
2023/08/03 11:11:02;;;;;;;0.80;0.30;;;;;;;;;;5058533;28;20381;-86
2023/08/03 11:13:29;;;;;;;0.93;0.45;;;;;;;;;;5058008;28;20373;-86
2023/08/03 11:15:55;;;;;;;2.42;0.40;;;;;;;;;;5056944;28;20373;-85
2023/08/03 11:18:21;;;;;;;1.75;0.30;;;;;;;;;;5055676;28;20393;-85
2023/08/03 11:20:47;;;;;;;1.00;0.50;;;;;;;;;;5058933;28;20412;-85
2023/08/03 11:23:13;;;;;;;0.95;0.50;;;;;;;;;;5060726;28;20389;-85
2023/08/03 11:25:40;;;;;;;1.00;0.30;;;;;;;;;;5061086;28;20420;-85
2023/08/03 11:28:06;;;;;;;1.15;0.40;;;;;;;;;;5061159;28;20443;-85
2023/08/03 11:30:32;;;;;;;1.05;0.30;;;;;;;;;;5061197;28;20393;-85
2023/08/03 11:32:59;;;;;;;0.80;0.30;;;;;;;;;;5060516;28;20874;-86
2023/08/03 11:35:25;;;;;;;2.50;0.57;;;;;;;;;;5062386;28;20472;-85
2023/08/03 11:37:51;;;;;;;1.52;0.35;;;;;;;;;;5061836;28;20377;-85
2023/08/03 11:40:17;;;;;;;1.65;0.50;;;;;;;;;;5062468;28;20450;-85
2023/08/03 11:42:44;;;;;;;2.15;0.35;;;;;;;;;;5062440;28;20412;-85
2023/08/03 11:45:12;;;;;;;0.85;0.30;;;;;;;;;;5062668;28;20413;-85
2023/08/03 11:47:45;;;;;;;1.25;0.40;;;;;;;;;;5060628;28;20393;-85
2023/08/03 11:50:11;;;;;;;0.80;0.30;;;;;;;;;;5062145;28;20397;-85
2023/08/03 11:52:37;;;;;;;1.17;0.50;;;;;;;;;;5062004;28;20738;-84
2023/08/03 11:55:03;;;;;;;0.80;0.40;;;;;;;;;;5061205;28;20381;-84
2023/08/03 12:00:17;;;;;;;1.40;0.40;;;;;;;;;;5061654;28;20385;-84
2023/08/03 12:02:44;;;;;;;2.20;0.30;;;;;;;;;;5061171;28;20382;-87
2023/08/03 12:05:10;;;;;;;1.10;0.40;;;;;;;;;;5059672;28;20455;-84
2023/08/03 12:07:36;;;;;;;1.90;0.22;;;;;;;;;;5059682;28;20385;-85
2023/08/03 12:10:12;;;;;;;0.70;0.30;;;;;;;;;;5060782;28;20409;-85
2023/08/03 12:12:39;;;;;;;0.88;0.40;;;;;;;;;;5061015;28;20453;-86
2023/08/03 12:15:06;;;;;;;1.60;0.40;;;;;;;;;;5062148;28;20389;-86
2023/08/03 12:17:32;;;;;;;1.85;0.30;;;;;;;;;;5061083;28;20439;-86
2023/08/03 12:19:57;;;;;;;1.85;0.45;;;;;;;;;;5061704;28;20389;-86
2023/08/03 12:22:23;;;;;;;2.10;0.43;;;;;;;;;;5060253;28;20381;-85
2023/08/03 12:24:49;;;;;;;2.85;0.40;;;;;;;;;;5060086;28;20446;-85
2023/08/03 12:27:15;;;;;;;1.33;0.30;;;;;;;;;;5059818;28;20386;-85
2023/08/03 12:29:41;;;;;;;1.10;0.30;;;;;;;;;;5060832;28;20393;-86
2023/08/03 12:32:08;;;;;;;0.85;0.40;;;;;;;;;;5058423;28;20475;-86
2023/08/03 12:34:34;;;;;;;0.50;0.30;;;;;;;;;;5060481;28;20386;-86
2023/08/03 12:37:00;;;;;;;0.85;0.40;;;;;;;;;;5060109;28;20476;-86
2023/08/03 12:39:26;;;;;;;1.33;0.45;;;;;;;;;;5060775;28;20739;-86
2023/08/03 12:41:52;;;;;;;2.00;0.50;;;;;;;;;;5060048;28;20381;-84
2023/08/03 12:44:18;;;;;;;1.00;0.50;;;;;;;;;;5061029;28;20409;-85
2023/08/03 12:46:44;;;;;;;1.02;0.38;;;;;;;;;;5061183;28;20386;-85
2023/08/03 12:49:10;;;;;;;1.13;0.47;;;;;;;;;;5059086;28;20385;-85
2023/08/03 12:51:36;;;;;;;0.88;0.40;;;;;;;;;;5060841;28;20862;-85
2023/08/03 12:54:06;;;;;;;2.00;0.52;;;;;;;;;;5060676;28;20397;-85
2023/08/03 12:56:36;;;;;;;2.45;0.50;;;;;;;;;;5059568;28;20420;-85
2023/08/03 12:59:02;;;;;;;0.95;0.35;;;;;;;;;;5060000;28;20385;-85
2023/08/03 13:01:28;;;;;;;1.73;0.50;;;;;;;;;;5060451;28;20397;-84
2023/08/03 13:03:54;;;;;;;1.05;0.43;;;;;;;;;;5061602;28;20405;-86
2023/08/03 13:06:20;;;;;;;1.27;0.40;;;;;;;;;;5060816;28;20779;-85
2023/08/03 13:08:46;;;;;;;1.80;0.50;;;;;;;;;;5060021;28;20385;-86
2023/08/03 13:11:12;;;;;;;1.17;0.40;;;;;;;;;;5060774;28;20418;-85
2023/08/03 13:13:38;;;;;;;1.23;0.38;;;;;;;;;;5062172;28;20388;-85
2023/08/03 13:16:05;;;;;;;1.33;0.38;;;;;;;;;;5062076;28;20405;-86
2023/08/03 13:18:31;;;;;;;1.38;0.40;;;;;;;;;;5060256;28;20397;-86
2023/08/03 13:20:57;;;;;;;1.75;0.47;;;;;;;;;;5061424;28;20464;-87
2023/08/03 13:23:23;;;;;;;1.80;0.53;;;;;;;;;;5060706;28;20793;-86
2023/08/03 13:25:49;;;;;;;1.93;0.50;;;;;;;;;;5061246;28;20425;-85
2023/08/03 13:28:15;;;;;;;1.27;0.37;;;;;;;;;;5061888;28;20480;-85
2023/08/03 13:30:41;;;;;;;1.00;0.43;;;;;;;;;;5060357;28;20393;-85
2023/08/03 13:33:07;;;;;;;2.30;0.40;;;;;;;;;;5061309;28;20451;-86
2023/08/03 13:35:33;;;;;;;2.33;0.43;;;;;;;;;;5061392;28;20476;-85
2023/08/03 13:37:59;;;;;;;0.70;0.40;;;;;;;;;;5061891;28;20443;-86
2023/08/03 13:40:25;;;;;;;1.65;0.40;;;;;;;;;;5061928;28;20382;-85
2023/08/03 13:42:51;;;;;;;1.17;0.40;;;;;;;;;;5061935;28;20785;-86
2023/08/03 13:45:17;;;;;;;1.38;0.50;;;;;;;;;;5063008;28;20455;-86
2023/08/03 13:47:43;;;;;;;1.20;0.40;;;;;;;;;;5063150;28;20381;-86
2023/08/03 13:50:09;;;;;;;1.20;0.40;;;;;;;;;;5062132;28;20390;-86
2023/08/03 13:52:35;;;;;;;1.15;0.30;;;;;;;;;;5064192;28;20377;-86
2023/08/03 13:55:02;;;;;;;1.48;0.40;;;;;;;;;;5062180;28;20377;-85
2023/08/03 13:57:28;;;;;;;1.00;0.30;;;;;;;;;;5061774;28;20398;-86
2023/08/03 13:59:54;;;;;;;1.60;0.30;;;;;;;;;;5062577;28;20385;-86
2023/08/03 14:02:20;;;;;;;0.93;0.35;;;;;;;;;;5061908;28;20389;-85
2023/08/03 14:04:46;;;;;;;0.88;0.40;;;;;;;;;;5061009;28;20480;-85
2023/08/03 14:07:12;;;;;;;0.70;0.30;;;;;;;;;;5061249;28;20398;-86
2023/08/03 14:09:38;;;;;;;0.57;0.20;;;;;;;;;;5061563;28;20381;-84
2023/08/03 14:12:05;;;;;;;0.70;0.20;;;;;;;;;;5060960;28;20381;-84
2023/08/03 14:14:31;;;;;;;2.25;0.30;;;;;;;;;;5060950;28;20393;-85
2023/08/03 14:16:57;;;;;;;1.60;0.20;;;;;;;;;;5060521;28;20378;-85
2023/08/03 14:19:23;;;;;;;0.55;0.40;;;;;;;;;;5060507;28;20382;-86
2023/08/03 14:21:49;;;;;;;0.90;0.20;;;;;;;;;;5061809;28;20392;-86
2023/08/03 14:24:15;;;;;;;0.28;0.20;;;;;;;;;;5062773;28;20409;-85
2023/08/03 14:26:41;;;;;;;3.03;0.35;;;;;;;;;;5059833;28;20399;-84
2023/08/03 14:29:07;;;;;;;0.45;0.20;;;;;;;;;;5061424;28;20466;-86
2023/08/03 14:31:33;;;;;;;0.70;0.20;;;;;;;;;;5061978;28;20590;-85
2023/08/03 14:33:59;;;;;;;1.52;0.30;;;;;;;;;;5061679;28;20384;-84
2023/08/03 14:36:25;;;;;;;0.60;0.20;;;;;;;;;;5062874;28;20831;-86
2023/08/03 14:38:54;;;;;;;0.80;0.40;;;;;;;;;;5061327;28;20400;-83
2023/08/03 14:41:21;;;;;;;0.85;0.30;;;;;;;;;;5060532;28;20385;-84
2023/08/03 14:43:49;;;;;;;0.40;0.20;;;;;;;;;;5060169;28;20381;-84